Etusivu
METAR-TAF:

METAR-TAF

Lentoasemat :

Alexandria, Louisiana, Yhdysvallat

Leveyspiiri: 31-23-42N, Pituuspiiri: 092-17-25W, korkeus merenpinnasta: 34 m

Tämänhetkinen sää

Tämä raportti tehtiin 53 minuuttia sitten, kello 03.53 UTC
tyyntä
Lämpötila 9°C
Kosteus 81%
Ilmanpaine 1019 hPa
Näkyvyys: 16.1 km
Hajonneita pilviä 8500 ft:n korkeudessa
Pilvistä 11000 ft:n korkeudessa

METAR: KESF 260353Z AUTO 00000KT 10SM BKN085 OVC110 09/06 A3010 RMK AO2 SLP194 T00890061 $

Aika: 22:46 (04:46 UTC)


TAF: puuttuu

Säähavainnot ja -ennusteet yli 4000 lentoasemalta (METAR- ja TAF-raportit).

Käytössä olevat sääasemat on merkitty karttaan keltaisilla ja punaisilla pisteillä.

Aseta hiiri pisteen päälle nähdäksesi sääaseman nimen.

Klikkaa sitten nähdäksesi säähavainnot ja -ennusteet.

Kartan vaihtaminen: klikkaa mustalla rastilla varustettuja vihreitä pisteitä, niin voit zoomata sisään; viivalla varustettua vihreää pistettä, niin voit zoomata ulos tai vihreitä nuolia, niin pääset viereisille kartoille.


METAR-TAF: